createdAt,value
2022-10-15T00:00:41.708Z,11.95
2022-10-15T00:03:08.475Z,11.98
2022-10-15T00:05:39.292Z,11.95
2022-10-15T00:08:07.833Z,13.95
2022-10-15T00:10:35.171Z,13.18
2022-10-15T00:15:30.103Z,13.85
2022-10-15T00:17:56.840Z,10.65
2022-10-15T00:20:23.536Z,13.90
2022-10-15T00:22:50.238Z,14.15
2022-10-15T00:25:16.905Z,14.57
2022-10-15T00:27:43.599Z,13.18
2022-10-15T00:30:10.875Z,9.75
2022-10-15T00:32:37.604Z,9.77
2022-10-15T00:35:04.697Z,9.57
2022-10-15T00:37:31.404Z,28.75
2022-10-15T00:39:58.161Z,29.83
2022-10-15T00:42:25.368Z,27.63
2022-10-15T00:44:57.725Z,22.15
2022-10-15T00:47:27.245Z,19.17
2022-10-15T00:50:00.139Z,16.10
2022-10-15T00:52:59.087Z,29.33
2022-10-15T00:55:28.578Z,20.13
2022-10-15T00:57:56.539Z,13.50
2022-10-15T01:00:23.354Z,15.75
2022-10-15T01:02:50.189Z,11.55
2022-10-15T01:05:18.455Z,13.77
2022-10-15T01:07:45.312Z,13.25
2022-10-15T01:10:12.854Z,10.38
2022-10-15T01:12:45.334Z,15.50
2022-10-15T01:15:50.496Z,10.15
2022-10-15T01:18:37.249Z,12.55
2022-10-15T01:21:21.948Z,24.42
2022-10-15T01:24:36.982Z,45.55
2022-10-15T01:27:36.325Z,18.80
2022-10-15T01:30:31.702Z,20.95
2022-10-15T01:33:08.075Z,12.23
2022-10-15T01:36:19.824Z,11.15
2022-10-15T01:38:49.711Z,13.40
2022-10-15T01:41:35.849Z,12.20
2022-10-15T01:44:17.899Z,14.57
2022-10-15T01:47:14.565Z,12.13
2022-10-15T01:49:44.364Z,11.55
2022-10-15T01:52:17.971Z,10.15
2022-10-15T01:54:47.545Z,16.63
2022-10-15T01:57:15.738Z,10.10
2022-10-15T01:59:43.813Z,13.90
2022-10-15T02:02:10.584Z,12.68
2022-10-15T02:04:37.330Z,12.93
2022-10-15T02:07:03.945Z,10.75
2022-10-15T02:10:02.715Z,15.75
2022-10-15T02:12:47.555Z,11.85
2022-10-15T02:15:21.656Z,14.73
2022-10-15T02:18:12.054Z,13.48
2022-10-15T02:20:57.934Z,15.23
2022-10-15T02:23:35.496Z,15.77
2022-10-15T02:26:06.709Z,12.25
2022-10-15T02:28:36.927Z,9.40
2022-10-15T02:31:05.686Z,12.13
2022-10-15T02:33:34.953Z,14.02
2022-10-15T02:36:02.078Z,12.98
2022-10-15T02:38:33.040Z,14.10
2022-10-15T02:41:00.834Z,20.88
2022-10-15T02:43:27.705Z,13.05
2022-10-15T02:45:54.409Z,11.35
2022-10-15T02:48:21.184Z,11.85
2022-10-15T02:50:47.907Z,13.13
2022-10-15T02:53:14.798Z,12.23
2022-10-15T02:55:41.560Z,12.05
2022-10-15T02:58:08.735Z,11.70
2022-10-15T03:00:35.502Z,14.20
2022-10-15T03:03:02.267Z,11.63
2022-10-15T03:05:29.163Z,14.23
2022-10-15T03:07:56.375Z,13.50
2022-10-15T03:10:23.148Z,10.20
2022-10-15T03:12:49.875Z,14.10
2022-10-15T03:15:16.904Z,11.80
2022-10-15T03:17:43.643Z,14.77
2022-10-15T03:20:10.463Z,13.18
2022-10-15T03:22:37.154Z,13.18
2022-10-15T03:25:04.374Z,10.35
2022-10-15T03:27:31.065Z,14.00
2022-10-15T03:29:57.708Z,12.13
2022-10-15T03:32:26.484Z,11.70
2022-10-15T03:34:53.232Z,10.65
2022-10-15T03:37:20.264Z,10.98
2022-10-15T03:39:47.208Z,10.20
2022-10-15T03:42:15.974Z,14.57
2022-10-15T03:44:42.771Z,22.17
2022-10-15T03:47:09.607Z,12.63
2022-10-15T03:49:36.342Z,11.95
2022-10-15T03:52:03.242Z,13.55
2022-10-15T03:54:29.939Z,11.95
2022-10-15T03:56:56.767Z,11.57
2022-10-15T03:59:23.526Z,10.77
2022-10-15T04:01:50.796Z,10.63
2022-10-15T04:04:26.520Z,11.90
2022-10-15T04:06:53.307Z,11.43
2022-10-15T04:09:20.112Z,13.95
2022-10-15T04:11:47.490Z,13.73
2022-10-15T04:14:14.298Z,12.05
2022-10-15T04:16:41.019Z,15.48
2022-10-15T04:19:10.286Z,13.77
2022-10-15T04:21:38.257Z,13.10
2022-10-15T04:24:05.496Z,11.80
2022-10-15T04:26:32.523Z,11.82
2022-10-15T04:28:59.355Z,9.80
2022-10-15T04:31:26.214Z,12.07
2022-10-15T04:33:53.290Z,14.43
2022-10-15T04:36:20.056Z,18.83
2022-10-15T04:38:46.792Z,11.55
2022-10-15T04:41:13.789Z,15.27
2022-10-15T04:43:40.839Z,16.65
2022-10-15T04:46:08.689Z,11.73
2022-10-15T04:48:38.989Z,12.63
2022-10-15T04:51:14.795Z,18.92
2022-10-15T04:53:45.204Z,12.40
2022-10-15T04:56:15.536Z,12.15
2022-10-15T04:58:43.036Z,13.32
2022-10-15T05:01:12.699Z,15.82
2022-10-15T05:03:44.156Z,14.82
2022-10-15T05:06:19.736Z,14.30
2022-10-15T05:08:47.201Z,12.55
2022-10-15T05:11:19.159Z,14.02
2022-10-15T05:13:46.617Z,14.85
2022-10-15T05:16:22.666Z,15.60
2022-10-15T05:18:52.530Z,13.20
2022-10-15T05:21:20.097Z,12.90
2022-10-15T05:23:47.448Z,15.82
2022-10-15T05:26:16.501Z,13.13
2022-10-15T05:28:43.281Z,13.30
2022-10-15T05:31:17.594Z,11.88
2022-10-15T05:33:45.792Z,12.75
2022-10-15T05:36:17.362Z,18.73
2022-10-15T05:38:50.076Z,16.83
2022-10-15T05:41:17.054Z,15.65
2022-10-15T05:43:47.577Z,16.25
2022-10-15T05:46:15.198Z,14.80
2022-10-15T05:48:41.894Z,14.57
2022-10-15T05:51:12.267Z,15.43
2022-10-15T05:53:39.806Z,15.45
2022-10-15T05:56:08.289Z,15.77
2022-10-15T05:58:37.538Z,16.75
2022-10-15T06:01:07.767Z,19.70
2022-10-15T06:03:35.438Z,13.85
2022-10-15T06:06:02.396Z,15.05
2022-10-15T06:08:30.858Z,15.65
2022-10-15T06:11:06.803Z,13.57
2022-10-15T06:13:38.192Z,12.88
2022-10-15T06:16:05.536Z,12.55
2022-10-15T06:18:32.529Z,20.90
2022-10-15T06:20:59.257Z,16.05
2022-10-15T06:23:26.056Z,15.55
2022-10-15T06:25:52.814Z,15.95
2022-10-15T06:28:19.803Z,21.08
2022-10-15T06:30:46.575Z,18.45
2022-10-15T06:33:13.560Z,16.63
2022-10-15T06:35:41.477Z,18.60
2022-10-15T06:38:09.013Z,16.85
2022-10-15T06:40:35.785Z,23.33
2022-10-15T06:43:12.658Z,31.08
2022-10-15T06:45:42.857Z,22.60
2022-10-15T06:48:09.820Z,22.20
2022-10-15T06:50:37.942Z,24.75
2022-10-15T06:53:05.868Z,22.52
2022-10-15T06:55:33.383Z,23.42
2022-10-15T06:58:00.625Z,22.30
2022-10-15T07:00:28.025Z,22.88
2022-10-15T07:02:55.327Z,28.42
2022-10-15T07:05:22.344Z,27.95
2022-10-15T07:07:56.387Z,26.40
2022-10-15T07:10:23.930Z,26.80
2022-10-15T07:12:50.798Z,24.08
2022-10-15T07:15:17.957Z,26.23
2022-10-15T07:17:52.337Z,28.88
2022-10-15T07:20:23.469Z,26.30
2022-10-15T07:22:55.933Z,29.27
2022-10-15T07:25:23.351Z,30.80
2022-10-15T07:27:50.247Z,33.03
2022-10-15T07:30:17.267Z,31.60
2022-10-15T07:32:46.336Z,31.60
2022-10-15T07:35:13.684Z,38.42
2022-10-15T07:37:40.986Z,27.63
2022-10-15T07:40:08.762Z,28.75
2022-10-15T07:42:35.619Z,29.10
2022-10-15T07:45:02.263Z,33.75
2022-10-15T07:47:29.103Z,28.30
2022-10-15T07:49:56.742Z,27.90
2022-10-15T07:52:23.708Z,29.20
2022-10-15T07:54:50.549Z,29.00
2022-10-15T07:57:18.233Z,29.77
2022-10-15T07:59:45.426Z,28.05
2022-10-15T08:02:19.367Z,30.70
2022-10-15T08:04:46.144Z,28.42
2022-10-15T08:07:13.100Z,30.88
2022-10-15T08:09:39.987Z,29.88
2022-10-15T08:12:07.227Z,30.48
2022-10-15T08:14:35.057Z,32.05
2022-10-15T08:17:03.338Z,29.30
2022-10-15T08:19:30.195Z,33.58
2022-10-15T08:21:58.749Z,32.63
2022-10-15T08:24:25.735Z,30.98
2022-10-15T08:26:52.548Z,26.48
2022-10-15T08:29:20.045Z,29.83
2022-10-15T08:31:46.933Z,29.08
2022-10-15T08:34:13.774Z,28.35
2022-10-15T08:36:40.906Z,31.45
2022-10-15T08:39:09.420Z,31.52
2022-10-15T08:41:41.724Z,30.33
2022-10-15T08:44:31.386Z,34.72
2022-10-15T08:47:40.479Z,35.03
2022-10-15T08:50:26.679Z,30.35
2022-10-15T08:52:56.120Z,32.97
2022-10-15T08:58:02.330Z,33.00
2022-10-15T09:00:41.757Z,35.40
2022-10-15T09:03:30.080Z,38.67
2022-10-15T09:06:06.127Z,30.60
2022-10-15T09:08:46.745Z,32.05
2022-10-15T09:11:43.109Z,32.55
2022-10-15T09:14:16.071Z,29.67
2022-10-15T09:16:46.397Z,29.77
2022-10-15T09:19:22.177Z,28.00
2022-10-15T09:21:51.128Z,29.00
2022-10-15T09:24:30.558Z,30.47
2022-10-15T09:27:26.156Z,30.00
2022-10-15T09:29:53.538Z,27.25
2022-10-15T09:32:31.653Z,26.88
2022-10-15T09:35:30.838Z,28.35
2022-10-15T09:38:22.342Z,27.17
2022-10-15T09:41:37.410Z,26.77
2022-10-15T09:44:11.114Z,30.48
2022-10-15T09:46:44.915Z,27.75
2022-10-15T09:49:36.226Z,30.00
2022-10-15T09:52:21.954Z,22.40
2022-10-15T09:55:00.495Z,22.10
2022-10-15T09:57:30.450Z,21.73
2022-10-15T10:00:03.278Z,20.92
2022-10-15T10:02:30.382Z,23.20
2022-10-15T10:04:57.662Z,24.38
2022-10-15T10:07:36.968Z,29.83
2022-10-15T10:10:25.947Z,22.42
2022-10-15T10:12:55.310Z,22.57
2022-10-15T10:15:22.286Z,24.08
2022-10-15T10:17:53.750Z,20.25
2022-10-15T10:20:22.948Z,19.58
2022-10-15T10:22:55.988Z,19.83
2022-10-15T10:25:31.736Z,21.38
2022-10-15T10:28:14.945Z,19.20
2022-10-15T10:31:00.435Z,15.60
2022-10-15T10:33:28.858Z,19.80
2022-10-15T10:35:56.263Z,18.58
2022-10-15T10:38:25.006Z,19.98
2022-10-15T10:40:54.098Z,16.90
2022-10-15T10:43:28.297Z,15.73
2022-10-15T10:46:02.876Z,16.55
2022-10-15T10:48:45.333Z,18.77
2022-10-15T10:51:18.245Z,19.73
2022-10-15T10:53:59.906Z,16.42
2022-10-15T10:56:41.936Z,13.18
2022-10-15T10:59:40.654Z,14.65
2022-10-15T11:02:12.336Z,14.77
2022-10-15T11:04:40.237Z,14.63
2022-10-15T11:07:18.139Z,14.30
2022-10-15T11:10:06.345Z,12.30
2022-10-15T11:12:39.901Z,13.43
2022-10-15T11:15:25.452Z,13.38
2022-10-15T11:18:01.634Z,13.73
2022-10-15T11:20:53.200Z,14.35
2022-10-15T11:23:58.705Z,12.82
2022-10-15T11:26:58.718Z,13.27
2022-10-15T11:29:51.198Z,11.90
2022-10-15T11:32:26.094Z,10.40
2022-10-15T11:35:34.571Z,12.38
2022-10-15T11:38:13.522Z,9.85
2022-10-15T11:40:57.189Z,10.27
2022-10-15T11:43:32.797Z,10.57
2022-10-15T11:46:15.790Z,9.55
2022-10-15T11:49:14.826Z,8.52
2022-10-15T11:52:19.594Z,15.23
2022-10-15T11:54:52.619Z,16.20
2022-10-15T11:57:21.396Z,9.07
2022-10-15T11:59:56.306Z,11.38
2022-10-15T12:02:41.733Z,9.10
2022-10-15T12:05:27.741Z,10.02
2022-10-15T12:07:55.750Z,19.33
2022-10-15T12:10:25.995Z,9.25
2022-10-15T12:13:10.229Z,8.35
2022-10-15T12:16:03.656Z,7.25
2022-10-15T12:18:38.885Z,9.48
2022-10-15T12:21:40.760Z,20.60
2022-10-15T12:24:47.624Z,11.50
2022-10-15T12:27:20.999Z,10.05
2022-10-15T12:29:50.935Z,11.90
2022-10-15T12:32:26.345Z,8.55
2022-10-15T12:34:58.765Z,9.43
2022-10-15T12:37:28.558Z,7.57
2022-10-15T12:42:31.972Z,9.80
2022-10-15T12:45:00.905Z,9.77
2022-10-15T12:47:46.393Z,9.37
2022-10-15T12:50:27.965Z,8.23
2022-10-15T12:53:04.936Z,8.18
2022-10-15T12:55:38.810Z,9.48
2022-10-15T12:58:41.296Z,7.13
2022-10-15T13:01:14.195Z,7.25
2022-10-15T13:03:50.471Z,5.13
2022-10-15T13:06:23.242Z,7.57
2022-10-15T13:09:19.897Z,8.60
2022-10-15T13:11:48.588Z,6.70
2022-10-15T13:14:21.316Z,4.97
2022-10-15T13:16:50.537Z,4.07
2022-10-15T13:19:24.104Z,4.97
2022-10-15T13:22:03.271Z,9.95
2022-10-15T13:24:39.857Z,5.05
2022-10-15T13:27:30.993Z,7.10
2022-10-15T13:30:01.873Z,2.28
2022-10-15T13:32:31.857Z,4.90
2022-10-15T13:37:35.090Z,3.08
2022-10-15T13:40:07.506Z,3.53
2022-10-15T13:42:35.655Z,2.22
2022-10-15T13:45:05.884Z,4.03
2022-10-15T13:47:38.235Z,4.72
2022-10-15T13:50:18.211Z,6.05
2022-10-15T13:52:51.054Z,4.53
2022-10-15T13:55:39.543Z,3.72
2022-10-15T13:58:16.153Z,3.53
2022-10-15T14:00:43.939Z,3.45
2022-10-15T14:03:17.090Z,6.60
2022-10-15T14:05:46.113Z,3.53
2022-10-15T14:08:19.628Z,6.65
2022-10-15T14:10:47.237Z,3.42
2022-10-15T14:13:14.015Z,2.92
2022-10-15T14:15:48.576Z,3.50
2022-10-15T14:18:18.527Z,2.35
2022-10-15T14:20:49.604Z,4.20
2022-10-15T14:23:27.766Z,3.58
2022-10-15T14:26:02.024Z,3.38
2022-10-15T14:28:31.793Z,2.50
2022-10-15T14:33:41.220Z,3.03
2022-10-15T14:36:13.103Z,2.38
2022-10-15T14:38:42.178Z,3.95
2022-10-15T14:41:26.123Z,3.03
2022-10-15T14:44:05.047Z,5.65
2022-10-15T14:46:41.512Z,7.57
2022-10-15T14:49:25.995Z,4.43
2022-10-15T14:52:06.163Z,7.25
2022-10-15T14:54:43.327Z,7.10
2022-10-15T14:57:41.378Z,5.55
2022-10-15T15:00:17.581Z,7.15
2022-10-15T15:02:45.181Z,4.55
2022-10-15T15:05:12.187Z,4.53
2022-10-15T15:07:39.913Z,5.22
2022-10-15T15:10:08.794Z,23.08
2022-10-15T15:12:38.491Z,2.90
2022-10-15T15:15:17.670Z,13.45
2022-10-15T15:17:48.755Z,5.05
2022-10-15T15:20:20.171Z,5.03
2022-10-15T15:22:50.544Z,6.28
2022-10-15T15:25:21.003Z,5.60
2022-10-15T15:27:48.286Z,4.55
2022-10-15T15:30:19.750Z,2.10
2022-10-15T15:32:48.125Z,7.65
2022-10-15T15:35:30.521Z,5.13
2022-10-15T15:37:57.236Z,3.60
2022-10-15T15:40:25.005Z,7.47
2022-10-15T15:42:51.803Z,5.95
2022-10-15T15:45:21.843Z,3.92
2022-10-15T15:47:48.888Z,3.03
2022-10-15T15:50:17.217Z,7.50
2022-10-15T15:52:44.491Z,3.47
2022-10-15T15:55:11.848Z,4.88
2022-10-15T15:57:39.251Z,7.32
2022-10-15T16:00:09.210Z,5.15
2022-10-15T16:02:38.804Z,3.10
2022-10-15T16:05:07.349Z,14.43
2022-10-15T16:07:34.939Z,4.97
2022-10-15T16:10:02.132Z,2.38
2022-10-15T16:12:28.909Z,5.25
2022-10-15T16:14:56.219Z,5.60
2022-10-15T16:17:24.521Z,6.72
2022-10-15T16:19:51.517Z,3.10
2022-10-15T16:22:18.253Z,3.63
2022-10-15T16:24:46.116Z,3.95
2022-10-15T16:27:13.065Z,1.63
2022-10-15T16:29:41.109Z,5.70
2022-10-15T16:32:07.926Z,7.68
2022-10-15T16:34:34.840Z,1.33
2022-10-15T16:37:02.031Z,5.50
2022-10-15T16:39:28.831Z,3.47
2022-10-15T16:41:56.200Z,3.75
2022-10-15T16:44:23.063Z,5.18
2022-10-15T16:46:50.265Z,23.15
2022-10-15T16:49:17.100Z,9.48
2022-10-15T16:51:44.454Z,9.57
2022-10-15T16:54:14.161Z,5.32
2022-10-15T16:56:41.494Z,3.55
2022-10-15T16:59:09.930Z,6.55
2022-10-15T17:01:37.048Z,7.63
2022-10-15T17:04:06.623Z,10.18
2022-10-15T17:06:33.729Z,4.97
2022-10-15T17:09:04.708Z,3.20
2022-10-15T17:11:36.600Z,10.15
2022-10-15T17:14:07.633Z,4.68
2022-10-15T17:16:39.649Z,3.30
2022-10-15T17:19:10.208Z,7.22
2022-10-15T17:21:38.215Z,4.97
2022-10-15T17:24:07.789Z,3.38
2022-10-15T17:26:39.457Z,5.35
2022-10-15T17:29:12.342Z,6.00
2022-10-15T17:31:39.866Z,4.28
2022-10-15T17:34:12.144Z,15.98
2022-10-15T17:36:45.681Z,7.05
2022-10-15T17:39:18.338Z,3.88
2022-10-15T17:41:46.835Z,4.35
2022-10-15T17:44:13.800Z,9.05
2022-10-15T17:46:41.584Z,6.13
2022-10-15T17:49:10.501Z,5.32
2022-10-15T17:51:40.855Z,5.60
2022-10-15T17:54:09.512Z,7.63
2022-10-15T17:56:42.288Z,8.38
2022-10-15T17:59:12.272Z,9.95
2022-10-15T18:04:29.771Z,9.27
2022-10-15T18:06:57.638Z,11.68
2022-10-15T18:09:28.906Z,8.07
2022-10-15T18:11:57.607Z,5.15
2022-10-15T18:14:25.228Z,36.38
2022-10-15T18:16:53.075Z,27.13
2022-10-15T18:19:22.492Z,21.95
2022-10-15T18:21:52.872Z,15.75
2022-10-15T18:24:22.373Z,14.90
2022-10-15T18:26:53.826Z,19.35
2022-10-15T18:29:23.916Z,16.00
2022-10-15T18:31:57.161Z,14.73
2022-10-15T18:34:25.923Z,16.55
2022-10-15T18:36:54.228Z,49.13
2022-10-15T18:39:23.523Z,24.90
2022-10-15T18:41:52.441Z,19.67
2022-10-15T18:44:22.002Z,15.47
2022-10-15T18:46:50.285Z,16.20
2022-10-15T18:49:19.156Z,15.68
2022-10-15T18:51:46.782Z,13.87
2022-10-15T18:54:14.681Z,15.60
2022-10-15T18:56:42.035Z,17.63
2022-10-15T18:59:09.150Z,13.25
2022-10-15T19:01:39.676Z,10.18
2022-10-15T19:04:10.129Z,13.32
2022-10-15T19:06:40.984Z,12.05
2022-10-15T19:09:11.716Z,10.90
2022-10-15T19:11:40.831Z,10.88
2022-10-15T19:14:08.003Z,12.80
2022-10-15T19:16:35.862Z,12.38
2022-10-15T19:19:04.447Z,8.20
2022-10-15T19:21:32.420Z,13.45
2022-10-15T19:24:00.327Z,7.35
2022-10-15T19:26:28.623Z,5.88
2022-10-15T19:28:57.655Z,5.90
2022-10-15T19:31:36.368Z,7.57
2022-10-15T19:34:03.657Z,7.10
2022-10-15T19:36:33.785Z,11.80
2022-10-15T19:39:02.671Z,13.07
2022-10-15T19:41:30.265Z,9.53
2022-10-15T19:43:57.646Z,7.53
2022-10-15T19:46:25.553Z,20.02
2022-10-15T19:48:52.482Z,9.43
2022-10-15T19:51:20.358Z,9.45
2022-10-15T19:53:52.065Z,17.65
2022-10-15T19:56:19.444Z,16.10
2022-10-15T19:58:46.407Z,19.40
2022-10-15T20:01:13.995Z,17.55
2022-10-15T20:03:41.578Z,24.67
2022-10-15T20:06:09.139Z,19.52
2022-10-15T20:08:37.695Z,20.58
2022-10-15T20:11:09.134Z,13.30
2022-10-15T20:13:36.591Z,14.77
2022-10-15T20:16:07.146Z,13.77
2022-10-15T20:18:35.129Z,14.50
2022-10-15T20:21:08.930Z,16.90
2022-10-15T20:23:38.169Z,9.88
2022-10-15T20:26:06.998Z,10.95
2022-10-15T20:28:38.606Z,14.45
2022-10-15T20:31:11.741Z,11.13
2022-10-15T20:33:38.917Z,8.65
2022-10-15T20:36:14.565Z,9.57
2022-10-15T20:38:42.446Z,10.30
2022-10-15T20:41:14.685Z,8.15
2022-10-15T20:43:43.035Z,5.13
2022-10-15T20:46:33.035Z,5.72
2022-10-15T20:49:09.425Z,5.13
2022-10-15T20:51:39.723Z,5.88
2022-10-15T20:54:07.257Z,5.15
2022-10-15T20:56:34.330Z,4.20
2022-10-15T20:59:01.410Z,4.30
2022-10-15T21:01:28.480Z,4.30
2022-10-15T21:03:55.421Z,3.47
2022-10-15T21:06:22.344Z,3.53
2022-10-15T21:08:51.399Z,7.22
2022-10-15T21:11:18.358Z,4.95
2022-10-15T21:13:47.304Z,6.88
2022-10-15T21:16:18.515Z,3.23
2022-10-15T21:18:45.517Z,2.90
2022-10-15T21:21:14.309Z,2.80
2022-10-15T21:23:42.263Z,5.43
2022-10-15T21:26:12.418Z,2.92
2022-10-15T21:28:39.708Z,3.58
2022-10-15T21:31:11.592Z,3.05
2022-10-15T21:33:39.533Z,20.70
2022-10-15T21:36:14.505Z,7.75
2022-10-15T21:38:42.083Z,7.82
2022-10-15T21:41:09.257Z,9.25
2022-10-15T21:43:36.169Z,4.60
2022-10-15T21:46:12.499Z,8.73
2022-10-15T21:48:40.582Z,4.22
2022-10-15T21:51:18.122Z,7.68
2022-10-15T21:53:45.263Z,9.05
2022-10-15T21:56:12.321Z,4.30
2022-10-15T21:58:40.279Z,6.82
2022-10-15T22:01:09.176Z,10.52
2022-10-15T22:03:36.009Z,4.33
2022-10-15T22:06:02.871Z,4.05
2022-10-15T22:08:30.263Z,5.25
2022-10-15T22:11:17.949Z,4.07
2022-10-15T22:13:46.955Z,5.30
2022-10-15T22:16:14.814Z,3.83
2022-10-15T22:18:41.935Z,7.50
2022-10-15T22:21:17.417Z,11.60
2022-10-15T22:23:49.962Z,7.45
2022-10-15T22:26:19.206Z,6.05
2022-10-15T22:28:46.961Z,6.10
2022-10-15T22:31:16.842Z,5.95
2022-10-15T22:33:45.297Z,5.82
2022-10-15T22:36:21.367Z,6.90
2022-10-15T22:38:52.985Z,7.40
2022-10-15T22:41:26.500Z,6.75
2022-10-15T22:43:55.685Z,4.65
2022-10-15T22:46:25.730Z,5.28
2022-10-15T22:51:26.964Z,4.60
2022-10-15T22:54:00.345Z,4.82
2022-10-15T22:56:28.607Z,8.15
2022-10-15T22:58:57.225Z,5.28
2022-10-15T23:03:37.718Z,5.85
2022-10-15T23:06:07.522Z,5.30
2022-10-15T23:11:19.842Z,4.65
2022-10-15T23:13:47.763Z,5.38
2022-10-15T23:16:17.008Z,7.40
2022-10-15T23:18:45.131Z,25.70
2022-10-15T23:21:15.085Z,5.10
2022-10-15T23:26:15.410Z,5.70
2022-10-15T23:28:43.357Z,6.75
2022-10-15T23:31:17.733Z,4.88
2022-10-15T23:33:45.424Z,4.47
2022-10-15T23:36:12.562Z,7.93
2022-10-15T23:38:39.298Z,8.60
2022-10-15T23:41:08.564Z,3.67
2022-10-15T23:43:35.312Z,4.22
2022-10-15T23:46:02.476Z,6.07
2022-10-15T23:48:29.255Z,6.47
2022-10-15T23:51:00.869Z,4.93
2022-10-15T23:53:31.890Z,3.92
2022-10-15T23:56:01.815Z,6.60
